Briefing drone pour Varois-et-chaignot

Rechercher une autre localisation

Conditions de vol :


Nous sommes le : Mardi 13 avril 2021
Il est 17:46 UTC (19:46 LT)

Lever de soleil : 04:27 UTC (06:27 LT)
Coucher de soleil : 18:52 UTC (20:52 LT)

Météo

L'essentiel des conditions de vol

VIGILANCE MÉTÉO FRANCE - Côte-dOr (21)
Pas de vigilances particulieres
METAR de LFSD
LFSD 131730Z AUTO 03010KT CAVOK 08/M02 Q1028

Date d'émission: 13/04/2021
Heure d'émission: 17:30 UTC
Vent: 030° pour 10 KT (19 km/h)
Visibilité horizontale: > 10 km
Plafond : Plafond et visibilité OK (CAVOK)
Température: 8 °C
Point de rosée: -2 °C
Humidité: 49%
Pression (QNH): 1028 hPa
TAF de LFSD
LFSD 010600Z 0100/0124 CNL

Conditions prévues :

Heure d'émission : Bulletin éffectué le 01 à 00:00 UTC
Prévision : Valide du 01 a 00:00 UTC au 01 a 23:59 UTC
Nuages : à 0ft (0 m)
WEBCAM POUR VAROIS-ET-CHAIGNOT

Réglementation

Voler en sécurité

CARTES AERONAUTIQUE 1/500.000
CARTES VAC (LFSD)
SUP AIP




Chargement des AIP...
NOTAM (VAROIS-ET-CHAIGNOT + Terrain à proximité / FIR )




Chargement des NOTAMS...
CONTACT PREFECTURE 21
Côte-dOr (21) : pref-drone@cote-dor.gouv.fr


Avertissement : Les données mises à disposition sont indicatives. Oxygène Drone ne pourra être tenu responsable de dégâts causés aux biens et aux personnes.